Time,TemperatureF,DewpointF,PressureIn,WindDirection,WindDirectionDegrees,WindSpeedMPH,WindSpeedGustMPH,Humidity,HourlyPrecipIn,Conditions,Clouds,dailyrainin,SoftwareType,DateUTC
2013-09-23 00:03:00,77.5,73.0,29.75,ENE,71,1.0,1.0,86,0.00,,,0.00,Wunderground v.1.15,2013-09-23 05:03:00,
2013-09-23 00:09:00,77.6,73.4,29.75,East,81,1.0,2.0,87,0.00,,,0.00,Wunderground v.1.15,2013-09-23 05:09:00,
2013-09-23 00:15:00,77.6,73.8,29.75,NE,48,1.0,3.0,88,0.00,,,0.00,Wunderground v.1.15,2013-09-23 05:15:00,
2013-09-23 00:21:00,77.7,73.9,29.75,NE,50,1.0,3.0,88,0.00,,,0.00,Wunderground v.1.15,2013-09-23 05:21:00,
2013-09-23 00:27:00,77.6,73.8,29.74,East,84,1.0,4.0,88,0.00,,,0.00,Wunderground v.1.15,2013-09-23 05:27:00,
2013-09-23 00:33:00,77.6,73.4,29.74,East,86,1.0,1.0,87,0.00,,,0.00,Wunderground v.1.15,2013-09-23 05:33:00,
2013-09-23 00:39:00,77.5,73.3,29.74,East,83,1.0,3.0,87,0.00,,,0.00,Wunderground v.1.15,2013-09-23 05:39:00,
2013-09-23 00:44:00,77.4,73.2,29.74,ENE,71,1.0,2.0,87,0.00,,,0.00,Wunderground v.1.15,2013-09-23 05:44:00,
2013-09-23 00:50:00,77.4,73.2,29.75,NE,52,1.0,3.0,87,0.00,,,0.00,Wunderground v.1.15,2013-09-23 05:50:00,
2013-09-23 00:56:00,77.4,73.2,29.74,ENE,63,1.0,3.0,87,0.00,,,0.00,Wunderground v.1.15,2013-09-23 05:56:00,
2013-09-23 01:02:00,77.3,73.1,29.74,ENE,64,0.0,0.0,87,0.00,,,0.00,Wunderground v.1.15,2013-09-23 06:02:00,
2013-09-23 01:08:00,77.2,72.7,29.74,ENE,67,1.0,1.0,86,0.00,,,0.00,Wunderground v.1.15,2013-09-23 06:08:00,
2013-09-23 01:14:00,77.2,72.7,29.74,ENE,67,0.0,1.0,86,0.00,,,0.00,Wunderground v.1.15,2013-09-23 06:14:00,
2013-09-23 01:20:00,77.1,72.2,29.75,ENE,77,0.0,0.0,85,0.00,,,0.00,Wunderground v.1.15,2013-09-23 06:20:00,
2013-09-23 01:25:00,76.9,72.4,29.74,ENE,71,0.0,4.0,86,0.00,,,0.00,Wunderground v.1.15,2013-09-23 06:25:00,
2013-09-23 01:31:00,77.0,72.5,29.74,ENE,70,1.0,1.0,86,0.00,,,0.00,Wunderground v.1.15,2013-09-23 06:31:00,
2013-09-23 01:37:00,77.0,72.5,29.74,ENE,75,0.0,1.0,86,0.00,,,0.00,Wunderground v.1.15,2013-09-23 06:37:00,
2013-09-23 01:43:00,76.9,72.4,29.74,ENE,76,0.0,0.0,86,0.00,,,0.00,Wunderground v.1.15,2013-09-23 06:43:00,
2013-09-23 01:49:00,76.7,72.2,29.74,ENE,76,0.0,2.0,86,0.00,,,0.00,Wunderground v.1.15,2013-09-23 06:49:00,
2013-09-23 01:55:00,76.6,72.4,29.74,ENE,76,0.0,2.0,87,0.00,,,0.00,Wunderground v.1.15,2013-09-23 06:55:00,
2013-09-23 02:01:00,76.6,72.4,29.74,ENE,75,0.0,1.0,87,0.00,,,0.00,Wunderground v.1.15,2013-09-23 07:01:00,
2013-09-23 02:07:00,76.6,72.8,29.74,East,84,1.0,2.0,88,0.00,,,0.00,Wunderground v.1.15,2013-09-23 07:07:00,
2013-09-23 02:12:00,76.6,72.8,29.74,NE,50,1.0,3.0,88,0.00,,,0.00,Wunderground v.1.15,2013-09-23 07:12:00,
2013-09-23 02:18:00,76.6,72.8,29.73,East,86,1.0,3.0,88,0.00,,,0.00,Wunderground v.1.15,2013-09-23 07:18:00,
2013-09-23 02:24:00,76.6,72.8,29.73,NE,38,1.0,4.0,88,0.00,,,0.00,Wunderground v.1.15,2013-09-23 07:24:00,
2013-09-23 02:30:00,76.6,73.1,29.73,ENE,67,1.0,2.0,89,0.00,,,0.00,Wunderground v.1.15,2013-09-23 07:30:00,
2013-09-23 02:36:00,76.6,73.1,29.73,SSE,159,2.0,5.0,89,0.00,,,0.00,Wunderground v.1.15,2013-09-23 07:36:00,
2013-09-23 02:42:00,76.5,73.0,29.73,NE,41,1.0,3.0,89,0.00,,,0.00,Wunderground v.1.15,2013-09-23 07:42:00,
2013-09-23 02:48:00,76.5,73.0,29.73,NE,50,1.0,3.0,89,0.00,,,0.00,Wunderground v.1.15,2013-09-23 07:48:00,
2013-09-23 02:54:00,76.4,72.9,29.73,ENE,75,1.0,1.0,89,0.00,,,0.00,Wunderground v.1.15,2013-09-23 07:54:00,
2013-09-23 02:59:00,76.3,72.8,29.73,ENE,73,1.0,1.0,89,0.00,,,0.00,Wunderground v.1.15,2013-09-23 07:59:00,
2013-09-23 03:05:00,76.0,72.5,29.73,ENE,68,1.0,2.0,89,0.00,,,0.00,Wunderground v.1.15,2013-09-23 08:05:00,
2013-09-23 03:11:00,75.7,71.9,29.73,ENE,68,0.0,1.0,88,0.00,,,0.00,Wunderground v.1.15,2013-09-23 08:11:00,
2013-09-23 03:17:00,75.4,71.3,29.73,ENE,67,0.0,3.0,87,0.00,,,0.00,Wunderground v.1.15,2013-09-23 08:17:00,
2013-09-23 03:23:00,75.1,70.3,29.73,ENE,67,0.0,1.0,85,0.00,,,0.00,Wunderground v.1.15,2013-09-23 08:23:00,
2013-09-23 03:29:00,74.9,69.7,29.72,ENE,67,0.0,1.0,84,0.00,,,0.00,Wunderground v.1.15,2013-09-23 08:29:00,
2013-09-23 03:35:00,74.6,68.7,29.72,ENE,62,0.0,2.0,82,0.00,,,0.00,Wunderground v.1.15,2013-09-23 08:35:00,
2013-09-23 03:41:00,74.4,69.2,29.72,ENE,72,0.0,0.0,84,0.00,,,0.00,Wunderground v.1.15,2013-09-23 08:41:00,
2013-09-23 03:46:00,74.3,69.1,29.72,ENE,71,0.0,1.0,84,0.00,,,0.00,Wunderground v.1.15,2013-09-23 08:46:00,
2013-09-23 03:52:00,74.3,68.4,29.72,ENE,71,0.0,1.0,82,0.00,,,0.00,Wunderground v.1.15,2013-09-23 08:52:00,
2013-09-23 03:58:00,74.1,67.2,29.72,ENE,71,0.0,1.0,79,0.00,,,0.00,Wunderground v.1.15,2013-09-23 08:58:00,
2013-09-23 04:04:00,74.0,66.7,29.72,ENE,71,0.0,0.0,78,0.00,,,0.00,Wunderground v.1.15,2013-09-23 09:04:00,
2013-09-23 04:10:00,73.7,66.0,29.72,ENE,71,0.0,0.0,77,0.00,,,0.00,Wunderground v.1.15,2013-09-23 09:10:00,
2013-09-23 04:16:00,73.5,65.1,29.72,ENE,71,0.0,1.0,75,0.00,,,0.00,Wunderground v.1.15,2013-09-23 09:16:00,
2013-09-23 04:22:00,73.4,64.6,29.72,ENE,71,0.0,0.0,74,0.00,,,0.00,Wunderground v.1.15,2013-09-23 09:22:00,
2013-09-23 04:27:00,73.2,64.0,29.72,ENE,71,0.0,0.0,73,0.00,,,0.00,Wunderground v.1.15,2013-09-23 09:27:00,
2013-09-23 04:33:00,73.1,63.5,29.72,NE,50,0.0,4.0,72,0.00,,,0.00,Wunderground v.1.15,2013-09-23 09:33:00,
2013-09-23 04:39:00,73.2,63.6,29.72,ENE,58,0.0,4.0,72,0.00,,,0.00,Wunderground v.1.15,2013-09-23 09:39:00,
2013-09-23 04:45:00,73.3,63.3,29.72,ENE,58,0.0,0.0,71,0.00,,,0.00,Wunderground v.1.15,2013-09-23 09:45:00,
2013-09-23 04:51:00,73.2,62.8,29.73,ENE,58,0.0,0.0,70,0.00,,,0.00,Wunderground v.1.15,2013-09-23 09:51:00,
2013-09-23 04:57:00,73.1,61.5,29.72,ENE,58,0.0,0.0,67,0.00,,,0.00,Wunderground v.1.15,2013-09-23 09:57:00,
2013-09-23 05:03:00,72.9,60.9,29.72,ENE,58,0.0,0.0,66,0.00,,,0.00,Wunderground v.1.15,2013-09-23 10:03:00,
2013-09-23 05:08:00,72.6,60.6,29.73,ENE,58,0.0,0.0,66,0.00,,,0.00,Wunderground v.1.15,2013-09-23 10:08:00,
2013-09-23 05:14:00,72.2,59.3,29.73,ENE,58,0.0,0.0,64,0.00,,,0.00,Wunderground v.1.15,2013-09-23 10:14:00,
2013-09-23 05:20:00,72.0,58.7,29.73,ENE,58,0.0,0.0,63,0.00,,,0.00,Wunderground v.1.15,2013-09-23 10:20:00,
2013-09-23 05:26:00,71.7,58.0,29.73,ENE,58,0.0,0.0,62,0.00,,,0.00,Wunderground v.1.15,2013-09-23 10:26:00,
2013-09-23 05:32:00,71.6,57.4,29.74,ENE,58,0.0,0.0,61,0.00,,,0.00,Wunderground v.1.15,2013-09-23 10:32:00,
2013-09-23 05:38:00,71.4,56.8,29.73,ENE,58,0.0,0.0,60,0.00,,,0.00,Wunderground v.1.15,2013-09-23 10:38:00,
2013-09-23 05:44:00,71.3,56.2,29.74,ENE,58,0.0,0.0,59,0.00,,,0.00,Wunderground v.1.15,2013-09-23 10:44:00,
2013-09-23 05:49:00,71.2,56.1,29.74,ENE,58,0.0,0.0,59,0.00,,,0.00,Wunderground v.1.15,2013-09-23 10:49:00,
2013-09-23 05:55:00,71.0,55.5,29.73,ENE,58,0.0,0.0,58,0.00,,,0.00,Wunderground v.1.15,2013-09-23 10:55:00,
2013-09-23 06:01:00,70.9,55.9,29.73,ENE,58,0.0,0.0,59,0.00,,,0.00,Wunderground v.1.15,2013-09-23 11:01:00,
2013-09-23 06:07:00,70.9,55.4,29.74,ENE,58,0.0,0.0,58,0.00,,,0.00,Wunderground v.1.15,2013-09-23 11:07:00,
2013-09-23 06:13:00,71.0,55.5,29.74,ENE,58,0.0,0.0,58,0.00,,,0.00,Wunderground v.1.15,2013-09-23 11:13:00,
2013-09-23 06:19:00,71.0,55.5,29.73,NE,54,0.0,0.0,58,0.00,,,0.00,Wunderground v.1.15,2013-09-23 11:19:00,
2013-09-23 06:25:00,71.1,56.0,29.74,NE,48,0.0,1.0,59,0.00,,,0.00,Wunderground v.1.15,2013-09-23 11:25:00,
2013-09-23 06:30:00,71.2,56.6,29.74,NE,49,0.0,0.0,60,0.00,,,0.00,Wunderground v.1.15,2013-09-23 11:30:00,
2013-09-23 06:36:00,71.1,57.4,29.74,NE,50,0.0,3.0,62,0.00,,,0.00,Wunderground v.1.15,2013-09-23 11:36:00,
2013-09-23 06:42:00,71.0,57.8,29.74,NE,42,1.0,1.0,63,0.00,,,0.00,Wunderground v.1.15,2013-09-23 11:42:00,
2013-09-23 06:48:00,71.0,57.8,29.74,NE,42,0.0,2.0,63,0.00,,,0.00,Wunderground v.1.15,2013-09-23 11:48:00,
2013-09-23 06:53:00,71.0,57.8,29.74,NE,42,0.0,1.0,63,0.00,,,0.00,Wunderground v.1.15,2013-09-23 11:53:00,
2013-09-23 06:59:00,70.9,57.7,29.74,NE,45,0.0,1.0,63,0.00,,,0.00,Wunderground v.1.15,2013-09-23 11:59:00,
2013-09-23 07:05:00,71.0,57.8,29.74,NE,45,0.0,1.0,63,0.00,,,0.00,Wunderground v.1.15,2013-09-23 12:05:00,
2013-09-23 07:11:00,71.0,57.3,29.74,NE,45,0.0,0.0,62,0.00,,,0.00,Wunderground v.1.15,2013-09-23 12:11:00,
2013-09-23 07:17:00,71.0,56.9,29.74,NE,45,0.0,0.0,61,0.00,,,0.00,Wunderground v.1.15,2013-09-23 12:17:00,
2013-09-23 07:23:00,71.0,56.9,29.75,NE,45,0.0,0.0,61,0.00,,,0.00,Wunderground v.1.15,2013-09-23 12:23:00,
2013-09-23 07:29:00,71.1,56.5,29.75,NE,45,0.0,1.0,60,0.00,,,0.00,Wunderground v.1.15,2013-09-23 12:29:00,
2013-09-23 07:34:00,71.2,56.6,29.75,NE,44,0.0,0.0,60,0.00,,,0.00,Wunderground v.1.15,2013-09-23 12:34:00,
2013-09-23 07:40:00,71.2,56.6,29.75,NE,46,0.0,0.0,60,0.00,,,0.00,Wunderground v.1.15,2013-09-23 12:40:00,
2013-09-23 07:46:00,71.3,56.2,29.75,NE,46,0.0,0.0,59,0.00,,,0.00,Wunderground v.1.15,2013-09-23 12:46:00,
2013-09-23 07:52:00,71.5,55.9,29.75,NE,46,0.0,0.0,58,0.00,,,0.00,Wunderground v.1.15,2013-09-23 12:52:00,
2013-09-23 07:58:00,71.7,56.1,29.75,ENE,68,0.0,2.0,58,0.00,,,0.00,Wunderground v.1.15,2013-09-23 12:58:00,
2013-09-23 08:04:00,71.9,55.8,29.75,ENE,68,0.0,0.0,57,0.00,,,0.00,Wunderground v.1.15,2013-09-23 13:04:00,
2013-09-23 08:10:00,72.2,56.1,29.75,ENE,67,0.0,0.0,57,0.00,,,0.00,Wunderground v.1.15,2013-09-23 13:10:00,
2013-09-23 08:15:00,72.6,56.0,29.75,ENE,62,0.0,2.0,56,0.00,,,0.00,Wunderground v.1.15,2013-09-23 13:15:00,
2013-09-23 08:21:00,73.0,57.3,29.75,East,93,0.0,2.0,58,0.00,,,0.00,Wunderground v.1.15,2013-09-23 13:21:00,
2013-09-23 08:27:00,73.3,58.1,29.75,ENE,69,0.0,2.0,59,0.00,,,0.00,Wunderground v.1.15,2013-09-23 13:27:00,
2013-09-23 08:33:00,73.5,58.8,29.75,ENE,77,1.0,4.0,60,0.00,,,0.00,Wunderground v.1.15,2013-09-23 13:33:00,
2013-09-23 08:39:00,73.6,58.9,29.76,ENE,67,2.0,5.0,60,0.00,,,0.00,Wunderground v.1.15,2013-09-23 13:39:00,
2013-09-23 08:45:00,73.8,58.6,29.76,ENE,67,1.0,3.0,59,0.00,,,0.00,Wunderground v.1.15,2013-09-23 13:45:00,
2013-09-23 08:51:00,74.1,58.9,29.76,ENE,62,1.0,1.0,59,0.00,,,0.00,Wunderground v.1.15,2013-09-23 13:51:00,
2013-09-23 08:57:00,74.4,58.7,29.75,ENE,76,1.0,2.0,58,0.00,,,0.00,Wunderground v.1.15,2013-09-23 13:57:00,
2013-09-23 09:02:00,74.7,59.4,29.75,ENE,74,1.0,1.0,59,0.00,,,0.00,Wunderground v.1.15,2013-09-23 14:02:00,
2013-09-23 09:08:00,75.1,59.8,29.76,ENE,78,1.0,4.0,59,0.00,,,0.00,Wunderground v.1.15,2013-09-23 14:08:00,
2013-09-23 09:14:00,75.6,60.7,29.76,ENE,71,1.0,2.0,60,0.00,,,0.00,Wunderground v.1.15,2013-09-23 14:14:00,
2013-09-23 09:20:00,76.0,61.6,29.76,ENE,74,1.0,1.0,61,0.00,,,0.00,Wunderground v.1.15,2013-09-23 14:20:00,
2013-09-23 09:26:00,76.3,61.4,29.75,ENE,73,2.0,3.0,60,0.00,,,0.00,Wunderground v.1.15,2013-09-23 14:26:00,
2013-09-23 09:32:00,76.4,62.0,29.76,East,91,2.0,2.0,61,0.00,,,0.00,Wunderground v.1.15,2013-09-23 14:32:00,
2013-09-23 09:38:00,77.2,61.3,29.76,East,86,1.0,2.0,58,0.00,,,0.00,Wunderground v.1.15,2013-09-23 14:38:00,
2013-09-23 09:44:00,77.7,63.6,29.76,ENE,73,1.0,3.0,62,0.00,,,0.00,Wunderground v.1.15,2013-09-23 14:44:00,
2013-09-23 09:49:00,77.6,64.5,29.76,East,83,2.0,4.0,64,0.00,,,0.00,Wunderground v.1.15,2013-09-23 14:49:00,
2013-09-23 09:55:00,77.8,63.7,29.76,East,85,2.0,3.0,62,0.00,,,0.00,Wunderground v.1.15,2013-09-23 14:55:00,
2013-09-23 10:01:00,77.9,63.8,29.76,East,85,1.0,1.0,62,0.00,,,0.00,Wunderground v.1.15,2013-09-23 15:01:00,
2013-09-23 10:07:00,77.7,64.1,29.76,ENE,69,1.0,2.0,63,0.00,,,0.00,Wunderground v.1.15,2013-09-23 15:07:00,
2013-09-23 10:13:00,77.9,62.9,29.77,ENE,62,1.0,3.0,60,0.00,,,0.00,Wunderground v.1.15,2013-09-23 15:13:00,
2013-09-23 10:19:00,78.6,63.1,29.77,NE,56,1.0,3.0,59,0.00,,,0.00,Wunderground v.1.15,2013-09-23 15:19:00,
2013-09-23 10:25:00,78.9,63.8,29.77,ENE,70,2.0,3.0,60,0.00,,,0.00,Wunderground v.1.15,2013-09-23 15:25:00,
2013-09-23 10:31:00,79.9,63.3,29.77,ENE,70,1.0,2.0,57,0.00,,,0.00,Wunderground v.1.15,2013-09-23 15:31:00,
2013-09-23 10:36:00,80.5,65.3,29.77,ENE,78,1.0,3.0,60,0.00,,,0.00,Wunderground v.1.15,2013-09-23 15:36:00,
2013-09-23 10:42:00,80.6,67.7,29.77,ENE,69,2.0,2.0,65,0.00,,,0.00,Wunderground v.1.15,2013-09-23 15:42:00,
2013-09-23 10:48:00,80.2,66.5,29.77,South,179,1.0,2.0,63,0.00,,,0.00,Wunderground v.1.15,2013-09-23 15:48:00,
2013-09-23 10:54:00,80.2,66.0,29.77,SE,129,1.0,2.0,62,0.00,,,0.00,Wunderground v.1.15,2013-09-23 15:54:00,
2013-09-23 11:00:00,80.4,64.8,29.77,ENE,68,2.0,2.0,59,0.00,,,0.00,Wunderground v.1.15,2013-09-23 16:00:00,
2013-09-23 11:06:00,81.1,66.4,29.77,East,96,1.0,2.0,61,0.00,,,0.00,Wunderground v.1.15,2013-09-23 16:06:00,
2013-09-23 11:12:00,81.5,67.7,29.77,East,87,2.0,5.0,63,0.00,,,0.00,Wunderground v.1.15,2013-09-23 16:12:00,
2013-09-23 11:18:00,81.7,68.8,29.77,NE,48,2.0,5.0,65,0.00,,,0.00,Wunderground v.1.15,2013-09-23 16:18:00,
2013-09-23 11:24:00,82.5,68.6,29.77,ENE,65,1.0,4.0,63,0.00,,,0.00,Wunderground v.1.15,2013-09-23 16:24:00,
2013-09-23 11:30:00,83.1,69.7,29.77,NE,48,1.0,1.0,64,0.00,,,0.00,Wunderground v.1.15,2013-09-23 16:30:00,
2013-09-23 11:36:00,83.0,72.2,29.77,ENE,60,2.0,4.0,70,0.00,,,0.00,Wunderground v.1.15,2013-09-23 16:36:00,
2013-09-23 11:42:00,82.4,72.0,29.77,ENE,66,2.0,2.0,71,0.00,,,0.00,Wunderground v.1.15,2013-09-23 16:42:00,
2013-09-23 11:48:00,82.5,70.9,29.77,ENE,59,1.0,3.0,68,0.00,,,0.00,Wunderground v.1.15,2013-09-23 16:48:00,
2013-09-23 11:54:00,82.7,71.1,29.77,ENE,59,1.0,4.0,68,0.00,,,0.00,Wunderground v.1.15,2013-09-23 16:54:00,
2013-09-23 12:00:00,82.9,69.9,29.77,SSW,202,2.0,2.0,65,0.00,,,0.00,Wunderground v.1.15,2013-09-23 17:00:00,
2013-09-23 12:06:00,83.2,71.1,29.76,ESE,110,1.0,3.0,67,0.00,,,0.00,Wunderground v.1.15,2013-09-23 17:06:00,
2013-09-23 12:11:00,83.8,71.7,29.77,South,179,1.0,1.0,67,0.00,,,0.00,Wunderground v.1.15,2013-09-23 17:11:00,
2013-09-23 12:17:00,84.4,73.5,29.77,East,83,1.0,2.0,70,0.00,,,0.00,Wunderground v.1.15,2013-09-23 17:17:00,
2013-09-23 12:23:00,84.5,74.9,29.77,East,81,2.0,5.0,73,0.00,,,0.00,Wunderground v.1.15,2013-09-23 17:23:00,
2013-09-23 12:29:00,84.3,75.9,29.76,ENE,69,3.0,6.0,76,0.00,,,0.00,Wunderground v.1.15,2013-09-23 17:29:00,
2013-09-23 12:35:00,83.9,75.1,29.76,ENE,61,2.0,3.0,75,0.00,,,0.00,Wunderground v.1.15,2013-09-23 17:35:00,
2013-09-23 12:41:00,84.1,75.3,29.76,East,80,2.0,5.0,75,0.00,,,0.00,Wunderground v.1.15,2013-09-23 17:41:00,
2013-09-23 12:47:00,84.5,76.1,29.75,ENE,62,2.0,5.0,76,0.00,,,0.00,Wunderground v.1.15,2013-09-23 17:47:00,
2013-09-23 12:53:00,84.7,75.9,29.75,ENE,61,2.0,4.0,75,0.00,,,0.00,Wunderground v.1.15,2013-09-23 17:53:00,
2013-09-23 12:59:00,85.4,77.0,29.75,SE,128,2.0,4.0,76,0.00,,,0.00,Wunderground v.1.15,2013-09-23 17:59:00,
2013-09-23 13:05:00,86.1,78.0,29.75,ESE,116,1.0,3.0,77,0.00,,,0.00,Wunderground v.1.15,2013-09-23 18:05:00,
2013-09-23 13:11:00,85.7,78.0,29.75,East,90,1.0,1.0,78,0.00,,,0.00,Wunderground v.1.15,2013-09-23 18:11:00,
2013-09-23 13:17:00,84.9,77.3,29.74,ENE,69,1.0,3.0,78,0.00,,,0.00,Wunderground v.1.15,2013-09-23 18:17:00,
2013-09-23 13:23:00,84.7,76.7,29.74,ENE,63,1.0,2.0,77,0.00,,,0.00,Wunderground v.1.15,2013-09-23 18:23:00,
2013-09-23 13:29:00,85.5,76.7,29.74,ESE,114,1.0,2.0,75,0.00,,,0.00,Wunderground v.1.15,2013-09-23 18:29:00,
2013-09-23 13:35:00,85.7,78.0,29.73,ENE,70,1.0,4.0,78,0.00,,,0.00,Wunderground v.1.15,2013-09-23 18:35:00,
2013-09-23 13:40:00,85.4,77.8,29.73,ENE,65,2.0,2.0,78,0.00,,,0.00,Wunderground v.1.15,2013-09-23 18:40:00,
2013-09-23 13:46:00,86.3,77.4,29.73,ENE,64,1.0,2.0,75,0.00,,,0.00,Wunderground v.1.15,2013-09-23 18:46:00,
2013-09-23 13:52:00,86.8,79.1,29.73,ENE,75,1.0,2.0,78,0.00,,,0.00,Wunderground v.1.15,2013-09-23 18:52:00,
2013-09-23 13:57:00,86.6,79.3,29.72,ESE,102,1.0,4.0,79,0.00,,,0.00,Wunderground v.1.15,2013-09-23 18:57:00,
2013-09-23 14:03:00,86.7,79.4,29.72,ENE,62,2.0,3.0,79,0.00,,,0.00,Wunderground v.1.15,2013-09-23 19:03:00,
2013-09-23 14:09:00,87.2,80.3,29.72,ENE,62,2.0,5.0,80,0.00,,,0.00,Wunderground v.1.15,2013-09-23 19:09:00,
2013-09-23 14:15:00,87.6,80.7,29.71,ENE,68,2.0,3.0,80,0.00,,,0.00,Wunderground v.1.15,2013-09-23 19:15:00,
2013-09-23 14:21:00,88.0,81.0,29.71,ENE,75,2.0,3.0,80,0.00,,,0.00,Wunderground v.1.15,2013-09-23 19:21:00,
2013-09-23 14:27:00,88.3,81.7,29.71,ENE,60,2.0,3.0,81,0.00,,,0.00,Wunderground v.1.15,2013-09-23 19:27:00,
2013-09-23 14:33:00,88.2,81.6,29.71,NNW,336,2.0,4.0,81,0.00,,,0.00,Wunderground v.1.15,2013-09-23 19:33:00,
2013-09-23 14:39:00,88.3,81.7,29.71,North,1,1.0,4.0,81,0.00,,,0.00,Wunderground v.1.15,2013-09-23 19:39:00,
2013-09-23 14:45:00,88.1,81.9,29.71,NE,42,1.0,2.0,82,0.00,,,0.00,Wunderground v.1.15,2013-09-23 19:45:00,
2013-09-23 14:51:00,88.4,81.8,29.71,ESE,103,2.0,2.0,81,0.00,,,0.00,Wunderground v.1.15,2013-09-23 19:51:00,
2013-09-23 14:56:00,88.6,82.4,29.71,SSE,150,2.0,3.0,82,0.00,,,0.00,Wunderground v.1.15,2013-09-23 19:56:00,
2013-09-23 15:02:00,88.7,82.5,29.70,NE,50,2.0,6.0,82,0.00,,,0.00,Wunderground v.1.15,2013-09-23 20:02:00,
2013-09-23 15:08:00,88.7,82.5,29.70,ENE,62,2.0,7.0,82,0.00,,,0.00,Wunderground v.1.15,2013-09-23 20:08:00,
2013-09-23 15:14:00,88.5,82.3,29.70,SSE,162,2.0,2.0,82,0.00,,,0.00,Wunderground v.1.15,2013-09-23 20:14:00,
2013-09-23 15:20:00,88.9,82.7,29.70,East,85,2.0,2.0,82,0.00,,,0.00,Wunderground v.1.15,2013-09-23 20:20:00,
2013-09-23 15:26:00,89.1,83.3,29.70,NE,56,2.0,3.0,83,0.00,,,0.00,Wunderground v.1.15,2013-09-23 20:26:00,
2013-09-23 15:32:00,88.9,83.1,29.70,SSE,164,3.0,6.0,83,0.00,,,0.00,Wunderground v.1.15,2013-09-23 20:32:00,
2013-09-23 15:38:00,88.4,82.9,29.70,ENE,68,2.0,6.0,84,0.00,,,0.00,Wunderground v.1.15,2013-09-23 20:38:00,
2013-09-23 15:43:00,87.9,82.5,29.70,East,98,2.0,2.0,84,0.00,,,0.00,Wunderground v.1.15,2013-09-23 20:43:00,
2013-09-23 15:49:00,87.9,82.1,29.70,East,101,1.0,3.0,83,0.00,,,0.00,Wunderground v.1.15,2013-09-23 20:49:00,
2013-09-23 15:55:00,88.6,82.8,29.70,East,101,0.0,1.0,83,0.00,,,0.00,Wunderground v.1.15,2013-09-23 20:55:00,
2013-09-23 16:01:00,88.8,83.0,29.70,East,79,1.0,2.0,83,0.00,,,0.00,Wunderground v.1.15,2013-09-23 21:01:00,
2013-09-23 16:07:00,88.6,82.8,29.70,ESE,110,1.0,3.0,83,0.00,,,0.00,Wunderground v.1.15,2013-09-23 21:07:00,
2013-09-23 16:13:00,88.6,82.8,29.70,ENE,62,1.0,4.0,83,0.00,,,0.00,Wunderground v.1.15,2013-09-23 21:13:00,
2013-09-23 16:19:00,88.6,83.1,29.70,East,85,2.0,4.0,84,0.00,,,0.00,Wunderground v.1.15,2013-09-23 21:19:00,
2013-09-23 16:24:00,88.2,82.7,29.70,East,81,1.0,2.0,84,0.00,,,0.00,Wunderground v.1.15,2013-09-23 21:24:00,
2013-09-23 16:30:00,87.7,82.3,29.70,NE,42,2.0,3.0,84,0.00,,,0.00,Wunderground v.1.15,2013-09-23 21:30:00,
2013-09-23 16:36:00,87.5,82.1,29.70,ENE,57,2.0,4.0,84,0.00,,,0.00,Wunderground v.1.15,2013-09-23 21:36:00,
2013-09-23 16:42:00,87.4,82.0,29.70,ENE,67,2.0,4.0,84,0.00,,,0.00,Wunderground v.1.15,2013-09-23 21:42:00,
2013-09-23 16:48:00,87.5,81.7,29.69,ENE,60,1.0,4.0,83,0.00,,,0.00,Wunderground v.1.15,2013-09-23 21:48:00,
2013-09-23 16:54:00,87.6,81.8,29.69,ENE,66,1.0,2.0,83,0.00,,,0.00,Wunderground v.1.15,2013-09-23 21:54:00,
2013-09-23 17:00:00,88.3,82.5,29.69,East,84,1.0,2.0,83,0.00,,,0.00,Wunderground v.1.15,2013-09-23 22:00:00,
2013-09-23 17:05:00,88.8,83.0,29.69,East,85,1.0,2.0,83,0.00,,,0.00,Wunderground v.1.15,2013-09-23 22:05:00,
2013-09-23 17:11:00,89.2,83.4,29.69,East,92,1.0,3.0,83,0.00,,,0.00,Wunderground v.1.15,2013-09-23 22:11:00,
2013-09-23 17:17:00,88.7,83.2,29.69,NE,48,2.0,4.0,84,0.00,,,0.00,Wunderground v.1.15,2013-09-23 22:17:00,
2013-09-23 17:23:00,88.4,82.9,29.69,East,83,2.0,3.0,84,0.00,,,0.00,Wunderground v.1.15,2013-09-23 22:23:00,
2013-09-23 17:29:00,88.6,83.1,29.69,SW,224,2.0,4.0,84,0.00,,,0.00,Wunderground v.1.15,2013-09-23 22:29:00,
2013-09-23 17:35:00,88.8,83.3,29.69,NE,43,1.0,1.0,84,0.00,,,0.00,Wunderground v.1.15,2013-09-23 22:35:00,
2013-09-23 17:41:00,88.8,83.3,29.69,ENE,72,1.0,2.0,84,0.00,,,0.00,Wunderground v.1.15,2013-09-23 22:41:00,
2013-09-23 17:46:00,88.4,83.3,29.69,East,81,2.0,5.0,85,0.00,,,0.00,Wunderground v.1.15,2013-09-23 22:46:00,
2013-09-23 17:52:00,88.1,82.7,29.69,ENE,67,1.0,2.0,84,0.00,,,0.00,Wunderground v.1.15,2013-09-23 22:52:00,
2013-09-23 17:58:00,87.9,82.5,29.69,ENE,66,1.0,2.0,84,0.00,,,0.00,Wunderground v.1.15,2013-09-23 22:58:00,
2013-09-23 18:04:00,87.9,82.1,29.69,ENE,77,1.0,2.0,83,0.00,,,0.00,Wunderground v.1.15,2013-09-23 23:04:00,
2013-09-23 18:10:00,87.4,81.6,29.69,ENE,69,1.0,3.0,83,0.00,,,0.00,Wunderground v.1.15,2013-09-23 23:10:00,
2013-09-23 18:16:00,87.1,80.9,29.69,East,82,2.0,3.0,82,0.00,,,0.00,Wunderground v.1.15,2013-09-23 23:16:00,
2013-09-23 18:22:00,87.0,80.5,29.69,ESE,113,2.0,3.0,81,0.00,,,0.00,Wunderground v.1.15,2013-09-23 23:22:00,
2013-09-23 18:27:00,86.8,79.5,29.69,NE,54,2.0,3.0,79,0.00,,,0.00,Wunderground v.1.15,2013-09-23 23:27:00,
2013-09-23 18:33:00,86.5,78.0,29.70,ENE,57,1.0,1.0,76,0.00,,,0.00,Wunderground v.1.15,2013-09-23 23:33:00,
2013-09-23 18:39:00,86.3,77.0,29.70,ENE,70,1.0,4.0,74,0.00,,,0.00,Wunderground v.1.15,2013-09-23 23:39:00,
2013-09-23 18:45:00,86.2,75.7,29.70,NE,37,1.0,3.0,71,0.00,,,0.00,Wunderground v.1.15,2013-09-23 23:45:00,
2013-09-23 18:51:00,85.8,74.0,29.70,East,83,1.0,1.0,68,0.00,,,0.00,Wunderground v.1.15,2013-09-23 23:51:00,
2013-09-23 18:57:00,85.4,72.3,29.70,ENE,78,1.0,1.0,65,0.00,,,0.00,Wunderground v.1.15,2013-09-23 23:57:00,
2013-09-23 19:03:00,85.2,70.2,29.70,East,83,1.0,1.0,61,0.00,,,0.00,Wunderground v.1.15,2013-09-24 00:03:00,
2013-09-23 19:09:00,84.9,69.0,29.70,East,80,0.0,3.0,59,0.00,,,0.00,Wunderground v.1.15,2013-09-24 00:09:00,
2013-09-23 19:15:00,84.8,67.9,29.71,East,79,0.0,0.0,57,0.00,,,0.00,Wunderground v.1.15,2013-09-24 00:15:00,
2013-09-23 19:21:00,84.5,66.6,29.70,East,80,0.0,0.0,55,0.00,,,0.00,Wunderground v.1.15,2013-09-24 00:21:00,
2013-09-23 19:27:00,84.3,65.3,29.70,East,80,0.0,0.0,53,0.00,,,0.00,Wunderground v.1.15,2013-09-24 00:27:00,
2013-09-23 19:33:00,84.3,64.2,29.70,East,80,0.0,0.0,51,0.00,,,0.00,Wunderground v.1.15,2013-09-24 00:33:00,
2013-09-23 19:39:00,84.2,63.5,29.70,East,79,0.0,0.0,50,0.00,,,0.00,Wunderground v.1.15,2013-09-24 00:39:00,
2013-09-23 19:44:00,84.1,62.9,29.70,East,79,0.0,0.0,49,0.00,,,0.00,Wunderground v.1.15,2013-09-24 00:44:00,
2013-09-23 19:50:00,84.0,62.8,29.71,East,79,0.0,0.0,49,0.00,,,0.00,Wunderground v.1.15,2013-09-24 00:50:00,
2013-09-23 19:56:00,84.1,62.3,29.71,East,79,0.0,0.0,48,0.00,,,0.00,Wunderground v.1.15,2013-09-24 00:56:00,
2013-09-23 20:02:00,84.1,62.3,29.71,East,80,0.0,0.0,48,0.00,,,0.00,Wunderground v.1.15,2013-09-24 01:02:00,
2013-09-23 20:08:00,84.0,62.2,29.71,East,80,0.0,0.0,48,0.00,,,0.00,Wunderground v.1.15,2013-09-24 01:08:00,
2013-09-23 20:14:00,83.8,61.4,29.72,East,80,0.0,0.0,47,0.00,,,0.00,Wunderground v.1.15,2013-09-24 01:14:00,
2013-09-23 20:20:00,83.8,60.8,29.72,East,80,0.0,0.0,46,0.00,,,0.00,Wunderground v.1.15,2013-09-24 01:20:00,
2013-09-23 20:25:00,83.7,60.1,29.72,East,79,0.0,0.0,45,0.00,,,0.00,Wunderground v.1.15,2013-09-24 01:25:00,
2013-09-23 20:31:00,83.6,60.0,29.72,East,79,0.0,0.0,45,0.00,,,0.00,Wunderground v.1.15,2013-09-24 01:31:00,
2013-09-23 20:37:00,83.6,60.0,29.73,East,79,0.0,0.0,45,0.00,,,0.00,Wunderground v.1.15,2013-09-24 01:37:00,
2013-09-23 20:42:00,83.6,60.0,29.73,East,79,0.0,0.0,45,0.00,,,0.00,Wunderground v.1.15,2013-09-24 01:42:00,
2013-09-23 20:48:00,83.6,60.0,29.73,East,80,0.0,0.0,45,0.00,,,0.00,Wunderground v.1.15,2013-09-24 01:48:00,
2013-09-23 20:54:00,83.9,60.3,29.73,East,80,0.0,0.0,45,0.00,,,0.00,Wunderground v.1.15,2013-09-24 01:54:00,
2013-09-23 21:00:00,84.1,60.5,29.73,East,80,0.0,0.0,45,0.00,,,0.00,Wunderground v.1.15,2013-09-24 02:00:00,
2013-09-23 21:05:00,84.1,60.5,29.73,East,80,0.0,0.0,45,0.00,,,0.00,Wunderground v.1.15,2013-09-24 02:05:00,
2013-09-23 21:11:00,84.2,60.6,29.73,East,79,0.0,1.0,45,0.00,,,0.00,Wunderground v.1.15,2013-09-24 02:11:00,
2013-09-23 21:17:00,84.2,60.6,29.73,East,80,0.0,1.0,45,0.00,,,0.00,Wunderground v.1.15,2013-09-24 02:17:00,
2013-09-23 21:23:00,84.3,60.6,29.73,ENE,75,0.0,3.0,45,0.00,,,0.00,Wunderground v.1.15,2013-09-24 02:23:00,
2013-09-23 21:29:00,84.3,60.6,29.73,ENE,75,0.0,3.0,45,0.00,,,0.00,Wunderground v.1.15,2013-09-24 02:29:00,
2013-09-23 21:35:00,84.3,60.6,29.73,ENE,75,1.0,3.0,45,0.00,,,0.00,Wunderground v.1.15,2013-09-24 02:35:00,
2013-09-23 21:41:00,84.3,60.6,29.73,NE,40,1.0,1.0,45,0.00,,,0.00,Wunderground v.1.15,2013-09-24 02:41:00,
2013-09-23 21:47:00,84.4,60.7,29.73,East,79,1.0,4.0,45,0.00,,,0.00,Wunderground v.1.15,2013-09-24 02:47:00,
2013-09-23 21:53:00,84.4,60.7,29.73,East,79,1.0,2.0,45,0.00,,,0.00,Wunderground v.1.15,2013-09-24 02:53:00,
2013-09-23 21:58:00,84.3,60.6,29.73,East,79,0.0,2.0,45,0.00,,,0.00,Wunderground v.1.15,2013-09-24 02:58:00,
2013-09-23 22:04:00,84.2,60.6,29.74,East,79,0.0,2.0,45,0.00,,,0.00,Wunderground v.1.15,2013-09-24 03:04:00,
2013-09-23 22:10:00,84.1,60.5,29.74,East,79,0.0,0.0,45,0.00,,,0.00,Wunderground v.1.15,2013-09-24 03:10:00,
2013-09-23 22:16:00,84.1,60.5,29.74,East,79,1.0,1.0,45,0.00,,,0.00,Wunderground v.1.15,2013-09-24 03:16:00,
2013-09-23 22:21:00,84.0,60.4,29.74,ENE,77,1.0,1.0,45,0.00,,,0.00,Wunderground v.1.15,2013-09-24 03:21:00,
2013-09-23 22:27:00,84.0,60.4,29.74,ENE,67,1.0,3.0,45,0.00,,,0.00,Wunderground v.1.15,2013-09-24 03:27:00,
2013-09-23 22:33:00,83.9,60.3,29.75,ENE,68,1.0,1.0,45,0.00,,,0.00,Wunderground v.1.15,2013-09-24 03:33:00,
2013-09-23 22:38:00,83.8,60.2,29.75,ENE,68,0.0,1.0,45,0.00,,,0.00,Wunderground v.1.15,2013-09-24 03:38:00,
2013-09-23 22:44:00,83.7,60.1,29.75,ENE,66,1.0,2.0,45,0.00,,,0.00,Wunderground v.1.15,2013-09-24 03:44:00,
2013-09-23 22:50:00,83.7,60.1,29.75,ENE,65,1.0,1.0,45,0.00,,,0.00,Wunderground v.1.15,2013-09-24 03:50:00,
2013-09-23 22:56:00,83.6,60.0,29.75,ENE,63,1.0,1.0,45,0.00,,,0.00,Wunderground v.1.15,2013-09-24 03:56:00,
2013-09-23 23:01:00,83.5,59.9,29.75,ENE,63,1.0,1.0,45,0.00,,,0.00,Wunderground v.1.15,2013-09-24 04:01:00,
2013-09-23 23:02:00,83.5,59.9,29.75,ENE,63,1.0,1.0,45,0.00,,,0.00,Wunderground v.1.15,2013-09-24 04:02:00,
2013-09-23 23:03:00,83.5,59.9,29.75,ENE,63,1.0,1.0,45,0.00,,,0.00,Wunderground v.1.15,2013-09-24 04:03:00,
2013-09-23 23:04:00,83.5,59.9,29.75,ENE,63,0.0,1.0,45,0.00,,,0.00,Wunderground v.1.15,2013-09-24 04:04:00,
2013-09-23 23:07:00,83.4,59.8,29.75,ENE,63,0.0,1.0,45,0.00,,,0.00,Wunderground v.1.15,2013-09-24 04:07:00,
2013-09-23 23:13:00,83.3,59.7,29.75,ENE,63,0.0,0.0,45,0.00,,,0.00,Wunderground v.1.15,2013-09-24 04:13:00,
2013-09-23 23:19:00,83.2,59.6,29.75,ENE,63,0.0,0.0,45,0.00,,,0.00,Wunderground v.1.15,2013-09-24 04:19:00,
2013-09-23 23:25:00,83.0,59.5,29.75,ENE,63,0.0,0.0,45,0.00,,,0.00,Wunderground v.1.15,2013-09-24 04:25:00,
2013-09-23 23:31:00,82.9,59.4,29.75,ENE,63,0.0,0.0,45,0.00,,,0.00,Wunderground v.1.15,2013-09-24 04:31:00,
2013-09-23 23:37:00,82.8,59.3,29.75,ENE,63,0.0,0.0,45,0.00,,,0.00,Wunderground v.1.15,2013-09-24 04:37:00,
2013-09-23 23:43:00,82.7,59.8,29.75,ENE,63,0.0,0.0,46,0.00,,,0.00,Wunderground v.1.15,2013-09-24 04:43:00,
2013-09-23 23:49:00,82.5,59.6,29.75,ENE,63,0.0,0.0,46,0.00,,,0.00,Wunderground v.1.15,2013-09-24 04:49:00,
2013-09-23 23:55:00,82.4,59.5,29.75,ENE,63,0.0,0.0,46,0.00,,,0.00,Wunderground v.1.15,2013-09-24 04:55:00,